CMA CGM Lamartine — 2DMF2 — position and weather

sailwx.info

Track history (hours):
 
Tides and Currents Weather Stations Pressure Air Temp Water Temp Dewpoint Dewpoint Depression Visibility Wind Speed Wind Dir Waves Ship Positions

CMA CGM Lamartine

Last reported at 2018-Feb-13 23:14 UTC. Time now 2018-Feb-22 01:14 UTC.
Position N 31°24' E 032°20'.
Warning: this ship's position is 8 days out of date.

Length 299 m; draft 11.9 m.

Type: Ship (hazmat cat A). MMSI: 235080187.

Date/timePositionNaut miles runAvg speedWind from/ knotsBaromVisibWave heightAir tempDewpointWater temp
2018-Feb-13 23:14N 31°24' E 032°20'0 0.1
2018-Feb-13 22:59N 31°24' E 032°20'  
2018-Feb-11 10:23N 36°26' E 014°38'617.0
2018-Feb-11 10:00N 36°28' E 014°30'816.7
2018-Feb-11 09:30N 36°31' E 014°20'816.6
2018-Feb-11 09:00N 36°33' E 014°10'816.6
2018-Feb-11 08:30N 36°36' E 014°00'  
2018-Feb-08 23:30N 35°58' W 005°23'3617.8
2018-Feb-08 21:30N 35°54' W 006°06'  
2018-Feb-05 19:54N 40°16' W 028°38'1016.3
2018-Feb-05 19:18N 40°17' W 028°51'516.2
2018-Feb-05 19:00N 40°17' W 028°57'  
Track history (hours):
 
Tides and Currents Weather Stations Pressure Air Temp Water Temp Dewpoint Dewpoint Depression Visibility Wind Speed Wind Dir Waves Ship Positions

CMA CGM Lamartine

Last reported at 2018-Feb-13 23:14 UTC. Time now 2018-Feb-22 01:14 UTC.
Position N 31°24' E 032°20'.
Warning: this ship's position is 8 days out of date.

Length 299 m; draft 11.9 m.

Type: Ship (hazmat cat A). MMSI: 235080187.

Date/timePositionNaut miles runAvg speedWind from/ knotsBaromVisibWave heightAir tempDewpointWater temp
2018-Feb-13 23:14N 31°24' E 032°20'0 0.1
2018-Feb-13 22:59N 31°24' E 032°20'  
2018-Feb-11 10:23N 36°26' E 014°38'617.0
2018-Feb-11 10:00N 36°28' E 014°30'816.7
2018-Feb-11 09:30N 36°31' E 014°20'816.6
2018-Feb-11 09:00N 36°33' E 014°10'816.6
2018-Feb-11 08:30N 36°36' E 014°00'  
2018-Feb-08 23:30N 35°58' W 005°23'3617.8
2018-Feb-08 21:30N 35°54' W 006°06'  
2018-Feb-05 19:54N 40°16' W 028°38'1016.3
2018-Feb-05 19:18N 40°17' W 028°51'516.2
2018-Feb-05 19:00N 40°17' W 028°57'  

Dump ship's entire track history